sensor_id;sensor_type;location;lat;lon;timestamp;temperature;humidity
26107;DHT22;13866;50.748;12.630;2022-09-01T00:01:21;13.30;99.90
26107;DHT22;13866;50.748;12.630;2022-09-01T00:03:50;13.30;99.90
26107;DHT22;13866;50.748;12.630;2022-09-01T00:06:18;13.30;99.90
26107;DHT22;13866;50.748;12.630;2022-09-01T00:08:51;13.20;99.90
26107;DHT22;13866;50.748;12.630;2022-09-01T00:11:17;13.10;99.90
26107;DHT22;13866;50.748;12.630;2022-09-01T00:13:42;13.00;99.90
26107;DHT22;13866;50.748;12.630;2022-09-01T00:16:08;13.00;99.90
26107;DHT22;13866;50.748;12.630;2022-09-01T00:18:34;12.90;99.90
26107;DHT22;13866;50.748;12.630;2022-09-01T00:21:00;12.90;99.90
26107;DHT22;13866;50.748;12.630;2022-09-01T00:23:26;12.90;99.90
26107;DHT22;13866;50.748;12.630;2022-09-01T00:25:52;12.90;99.90
26107;DHT22;13866;50.748;12.630;2022-09-01T00:28:18;12.90;99.90
26107;DHT22;13866;50.748;12.630;2022-09-01T00:30:44;12.80;99.90
26107;DHT22;13866;50.748;12.630;2022-09-01T00:33:09;12.70;99.90
26107;DHT22;13866;50.748;12.630;2022-09-01T00:35:35;12.70;99.90
26107;DHT22;13866;50.748;12.630;2022-09-01T00:38:00;12.60;99.90
26107;DHT22;13866;50.748;12.630;2022-09-01T00:40:26;12.50;99.90
26107;DHT22;13866;50.748;12.630;2022-09-01T00:42:52;12.50;99.90
26107;DHT22;13866;50.748;12.630;2022-09-01T00:45:19;12.50;99.90
26107;DHT22;13866;50.748;12.630;2022-09-01T00:47:45;12.50;99.90
26107;DHT22;13866;50.748;12.630;2022-09-01T00:50:12;12.50;99.90
26107;DHT22;13866;50.748;12.630;2022-09-01T00:52:47;12.50;99.90
26107;DHT22;13866;50.748;12.630;2022-09-01T00:55:26;12.40;99.90
26107;DHT22;13866;50.748;12.630;2022-09-01T00:57:53;12.40;99.90
26107;DHT22;13866;50.748;12.630;2022-09-01T01:00:22;12.40;99.90
26107;DHT22;13866;50.748;12.630;2022-09-01T01:02:50;12.40;99.90
26107;DHT22;13866;50.748;12.630;2022-09-01T01:05:20;12.40;99.90
26107;DHT22;13866;50.748;12.630;2022-09-01T01:07:48;12.30;99.90
26107;DHT22;13866;50.748;12.630;2022-09-01T01:10:15;12.30;99.90
26107;DHT22;13866;50.748;12.630;2022-09-01T01:12:42;12.20;99.90
26107;DHT22;13866;50.748;12.630;2022-09-01T01:15:12;12.10;99.90
26107;DHT22;13866;50.748;12.630;2022-09-01T01:17:38;12.10;99.90
26107;DHT22;13866;50.748;12.630;2022-09-01T01:20:06;12.00;99.90
26107;DHT22;13866;50.748;12.630;2022-09-01T01:22:55;12.10;99.90
26107;DHT22;13866;50.748;12.630;2022-09-01T01:25:34;12.10;99.90
26107;DHT22;13866;50.748;12.630;2022-09-01T01:28:16;12.20;99.90
26107;DHT22;13866;50.748;12.630;2022-09-01T01:30:47;12.20;99.90
26107;DHT22;13866;50.748;12.630;2022-09-01T01:33:18;12.20;99.90
26107;DHT22;13866;50.748;12.630;2022-09-01T01:35:43;12.30;99.90
26107;DHT22;13866;50.748;12.630;2022-09-01T01:38:09;12.20;99.90
26107;DHT22;13866;50.748;12.630;2022-09-01T01:40:37;12.10;99.90
26107;DHT22;13866;50.748;12.630;2022-09-01T01:43:03;12.00;99.90
26107;DHT22;13866;50.748;12.630;2022-09-01T01:45:29;11.90;99.90
26107;DHT22;13866;50.748;12.630;2022-09-01T01:47:55;11.80;99.90
26107;DHT22;13866;50.748;12.630;2022-09-01T01:50:23;11.80;99.90
26107;DHT22;13866;50.748;12.630;2022-09-01T01:52:50;11.90;99.90
26107;DHT22;13866;50.748;12.630;2022-09-01T01:55:15;12.00;99.90
26107;DHT22;13866;50.748;12.630;2022-09-01T01:57:44;12.00;99.90
26107;DHT22;13866;50.748;12.630;2022-09-01T02:00:13;12.00;99.90
26107;DHT22;13866;50.748;12.630;2022-09-01T02:02:44;11.90;99.90
26107;DHT22;13866;50.748;12.630;2022-09-01T02:05:13;11.90;99.90
26107;DHT22;13866;50.748;12.630;2022-09-01T02:07:46;11.90;99.90
26107;DHT22;13866;50.748;12.630;2022-09-01T02:10:12;11.90;99.90
26107;DHT22;13866;50.748;12.630;2022-09-01T02:12:38;11.90;99.90
26107;DHT22;13866;50.748;12.630;2022-09-01T02:15:04;12.00;99.90
26107;DHT22;13866;50.748;12.630;2022-09-01T02:17:31;12.10;99.90
26107;DHT22;13866;50.748;12.630;2022-09-01T02:19:57;12.10;99.90
26107;DHT22;13866;50.748;12.630;2022-09-01T02:22:22;12.10;99.90
26107;DHT22;13866;50.748;12.630;2022-09-01T02:24:48;12.00;99.90
26107;DHT22;13866;50.748;12.630;2022-09-01T02:27:13;12.00;99.90
26107;DHT22;13866;50.748;12.630;2022-09-01T02:29:43;11.90;99.90
26107;DHT22;13866;50.748;12.630;2022-09-01T02:32:08;11.90;99.90
26107;DHT22;13866;50.748;12.630;2022-09-01T02:34:35;12.00;99.90
26107;DHT22;13866;50.748;12.630;2022-09-01T02:37:04;12.00;99.90
26107;DHT22;13866;50.748;12.630;2022-09-01T02:39:30;12.00;99.90
26107;DHT22;13866;50.748;12.630;2022-09-01T02:41:57;12.10;99.90
26107;DHT22;13866;50.748;12.630;2022-09-01T02:44:26;12.10;99.90
26107;DHT22;13866;50.748;12.630;2022-09-01T02:46:53;12.20;99.90
26107;DHT22;13866;50.748;12.630;2022-09-01T02:49:21;12.20;99.90
26107;DHT22;13866;50.748;12.630;2022-09-01T02:51:56;12.00;99.90
26107;DHT22;13866;50.748;12.630;2022-09-01T02:54:25;12.00;99.90
26107;DHT22;13866;50.748;12.630;2022-09-01T02:56:52;11.90;99.90
26107;DHT22;13866;50.748;12.630;2022-09-01T02:59:20;12.00;99.90
26107;DHT22;13866;50.748;12.630;2022-09-01T03:01:48;12.00;99.90
26107;DHT22;13866;50.748;12.630;2022-09-01T03:04:15;12.00;99.90
26107;DHT22;13866;50.748;12.630;2022-09-01T03:06:41;12.00;99.90
26107;DHT22;13866;50.748;12.630;2022-09-01T03:09:09;11.90;99.90
26107;DHT22;13866;50.748;12.630;2022-09-01T03:11:40;11.90;99.90
26107;DHT22;13866;50.748;12.630;2022-09-01T03:14:06;11.90;99.90
26107;DHT22;13866;50.748;12.630;2022-09-01T03:16:33;11.90;99.90
26107;DHT22;13866;50.748;12.630;2022-09-01T03:18:59;11.80;99.90
26107;DHT22;13866;50.748;12.630;2022-09-01T03:21:27;11.70;99.90
26107;DHT22;13866;50.748;12.630;2022-09-01T03:23:53;11.70;99.90
26107;DHT22;13866;50.748;12.630;2022-09-01T03:26:20;11.60;99.90
26107;DHT22;13866;50.748;12.630;2022-09-01T03:28:48;11.60;99.90
26107;DHT22;13866;50.748;12.630;2022-09-01T03:31:14;11.70;99.90
26107;DHT22;13866;50.748;12.630;2022-09-01T03:33:40;11.70;99.90
26107;DHT22;13866;50.748;12.630;2022-09-01T03:36:07;11.70;99.90
26107;DHT22;13866;50.748;12.630;2022-09-01T03:38:33;11.70;99.90
26107;DHT22;13866;50.748;12.630;2022-09-01T03:41:02;11.70;99.90
26107;DHT22;13866;50.748;12.630;2022-09-01T03:43:30;11.70;99.90
26107;DHT22;13866;50.748;12.630;2022-09-01T03:45:57;11.70;99.90
26107;DHT22;13866;50.748;12.630;2022-09-01T03:48:28;11.70;99.90
26107;DHT22;13866;50.748;12.630;2022-09-01T03:50:55;11.70;99.90
26107;DHT22;13866;50.748;12.630;2022-09-01T03:53:24;11.60;99.90
26107;DHT22;13866;50.748;12.630;2022-09-01T03:55:52;11.60;99.90
26107;DHT22;13866;50.748;12.630;2022-09-01T03:58:19;11.60;99.90
26107;DHT22;13866;50.748;12.630;2022-09-01T04:00:51;11.50;99.90
26107;DHT22;13866;50.748;12.630;2022-09-01T04:03:23;11.40;99.90
26107;DHT22;13866;50.748;12.630;2022-09-01T04:05:50;11.30;99.90
26107;DHT22;13866;50.748;12.630;2022-09-01T04:08:16;11.30;99.90
26107;DHT22;13866;50.748;12.630;2022-09-01T04:13:15;11.20;99.90
26107;DHT22;13866;50.748;12.630;2022-09-01T04:15:40;11.20;99.90
26107;DHT22;13866;50.748;12.630;2022-09-01T04:18:06;11.20;99.90
26107;DHT22;13866;50.748;12.630;2022-09-01T04:20:43;11.20;99.90
26107;DHT22;13866;50.748;12.630;2022-09-01T04:23:26;11.30;99.90
26107;DHT22;13866;50.748;12.630;2022-09-01T04:25:56;11.30;99.90
26107;DHT22;13866;50.748;12.630;2022-09-01T04:28:29;11.30;99.90
26107;DHT22;13866;50.748;12.630;2022-09-01T04:31:02;11.30;99.90
26107;DHT22;13866;50.748;12.630;2022-09-01T04:33:32;11.30;99.90
26107;DHT22;13866;50.748;12.630;2022-09-01T04:36:04;11.30;99.90
26107;DHT22;13866;50.748;12.630;2022-09-01T04:38:30;11.30;99.90
26107;DHT22;13866;50.748;12.630;2022-09-01T04:40:57;11.30;99.90
26107;DHT22;13866;50.748;12.630;2022-09-01T04:43:23;11.30;99.90
26107;DHT22;13866;50.748;12.630;2022-09-01T04:45:49;11.30;99.90
26107;DHT22;13866;50.748;12.630;2022-09-01T04:48:17;11.30;99.90
26107;DHT22;13866;50.748;12.630;2022-09-01T04:50:43;11.40;99.90
26107;DHT22;13866;50.748;12.630;2022-09-01T04:53:09;11.50;99.90
26107;DHT22;13866;50.748;12.630;2022-09-01T04:55:38;11.40;99.90
26107;DHT22;13866;50.748;12.630;2022-09-01T04:58:07;11.50;99.90
26107;DHT22;13866;50.748;12.630;2022-09-01T05:00:33;11.50;99.90
26107;DHT22;13866;50.748;12.630;2022-09-01T05:03:01;11.50;99.90
26107;DHT22;13866;50.748;12.630;2022-09-01T05:05:39;11.50;99.90
26107;DHT22;13866;50.748;12.630;2022-09-01T05:08:09;11.60;99.90
26107;DHT22;13866;50.748;12.630;2022-09-01T05:10:42;11.60;99.90
26107;DHT22;13866;50.748;12.630;2022-09-01T05:13:10;11.70;99.90
26107;DHT22;13866;50.748;12.630;2022-09-01T05:15:38;11.70;99.90
26107;DHT22;13866;50.748;12.630;2022-09-01T05:18:05;11.80;99.90
26107;DHT22;13866;50.748;12.630;2022-09-01T05:20:36;11.90;99.90
26107;DHT22;13866;50.748;12.630;2022-09-01T05:23:03;12.00;99.90
26107;DHT22;13866;50.748;12.630;2022-09-01T05:25:29;12.10;99.90
26107;DHT22;13866;50.748;12.630;2022-09-01T05:27:55;12.10;99.90
26107;DHT22;13866;50.748;12.630;2022-09-01T05:30:21;12.20;99.90
26107;DHT22;13866;50.748;12.630;2022-09-01T05:32:47;12.30;99.90
26107;DHT22;13866;50.748;12.630;2022-09-01T05:35:13;12.30;99.90
26107;DHT22;13866;50.748;12.630;2022-09-01T05:37:39;12.40;99.90
26107;DHT22;13866;50.748;12.630;2022-09-01T05:40:08;12.50;99.90
26107;DHT22;13866;50.748;12.630;2022-09-01T05:42:43;12.60;99.90
26107;DHT22;13866;50.748;12.630;2022-09-01T05:45:09;12.70;99.90
26107;DHT22;13866;50.748;12.630;2022-09-01T05:47:37;12.80;99.90
26107;DHT22;13866;50.748;12.630;2022-09-01T05:50:04;12.90;99.90
26107;DHT22;13866;50.748;12.630;2022-09-01T05:52:33;13.00;99.90
26107;DHT22;13866;50.748;12.630;2022-09-01T05:54:59;13.10;99.90
26107;DHT22;13866;50.748;12.630;2022-09-01T05:57:25;13.20;99.90
26107;DHT22;13866;50.748;12.630;2022-09-01T05:59:51;13.30;99.90
26107;DHT22;13866;50.748;12.630;2022-09-01T06:02:19;13.40;99.90
26107;DHT22;13866;50.748;12.630;2022-09-01T06:04:45;13.60;99.90
26107;DHT22;13866;50.748;12.630;2022-09-01T06:07:12;13.70;99.90
26107;DHT22;13866;50.748;12.630;2022-09-01T06:09:41;13.90;99.90
26107;DHT22;13866;50.748;12.630;2022-09-01T06:12:07;14.00;99.90
26107;DHT22;13866;50.748;12.630;2022-09-01T06:14:42;14.20;99.90
26107;DHT22;13866;50.748;12.630;2022-09-01T06:17:08;14.20;99.90
26107;DHT22;13866;50.748;12.630;2022-09-01T06:19:36;14.40;99.90
26107;DHT22;13866;50.748;12.630;2022-09-01T06:22:02;14.50;99.90
26107;DHT22;13866;50.748;12.630;2022-09-01T06:24:28;14.60;99.90
26107;DHT22;13866;50.748;12.630;2022-09-01T06:26:53;14.60;99.90
26107;DHT22;13866;50.748;12.630;2022-09-01T06:29:19;15.00;99.90
26107;DHT22;13866;50.748;12.630;2022-09-01T06:31:45;15.10;99.90
26107;DHT22;13866;50.748;12.630;2022-09-01T06:34:16;15.10;99.90
26107;DHT22;13866;50.748;12.630;2022-09-01T06:36:42;15.20;99.90
26107;DHT22;13866;50.748;12.630;2022-09-01T06:39:08;15.30;99.90
26107;DHT22;13866;50.748;12.630;2022-09-01T06:41:34;15.40;99.90
26107;DHT22;13866;50.748;12.630;2022-09-01T06:44:03;15.60;99.90
26107;DHT22;13866;50.748;12.630;2022-09-01T06:46:28;15.90;99.90
26107;DHT22;13866;50.748;12.630;2022-09-01T06:48:55;16.20;99.90
26107;DHT22;13866;50.748;12.630;2022-09-01T06:51:21;16.30;99.90
26107;DHT22;13866;50.748;12.630;2022-09-01T06:53:49;16.30;99.90
26107;DHT22;13866;50.748;12.630;2022-09-01T06:56:17;16.30;99.90
26107;DHT22;13866;50.748;12.630;2022-09-01T06:58:44;16.20;99.90
26107;DHT22;13866;50.748;12.630;2022-09-01T07:01:17;16.30;99.90
26107;DHT22;13866;50.748;12.630;2022-09-01T07:03:46;16.10;99.90
26107;DHT22;13866;50.748;12.630;2022-09-01T07:06:13;16.30;99.90
26107;DHT22;13866;50.748;12.630;2022-09-01T07:08:38;16.60;99.90
26107;DHT22;13866;50.748;12.630;2022-09-01T07:11:07;16.90;99.90
26107;DHT22;13866;50.748;12.630;2022-09-01T07:13:34;17.10;99.90
26107;DHT22;13866;50.748;12.630;2022-09-01T07:16:01;16.90;99.90
26107;DHT22;13866;50.748;12.630;2022-09-01T07:18:32;17.20;99.90
26107;DHT22;13866;50.748;12.630;2022-09-01T07:20:58;17.40;99.90
26107;DHT22;13866;50.748;12.630;2022-09-01T07:23:24;17.40;99.90
26107;DHT22;13866;50.748;12.630;2022-09-01T07:25:50;17.50;99.90
26107;DHT22;13866;50.748;12.630;2022-09-01T07:28:19;17.60;99.90
26107;DHT22;13866;50.748;12.630;2022-09-01T07:30:47;17.80;99.90
26107;DHT22;13866;50.748;12.630;2022-09-01T07:33:14;17.70;99.90
26107;DHT22;13866;50.748;12.630;2022-09-01T07:35:41;17.80;99.90
26107;DHT22;13866;50.748;12.630;2022-09-01T07:38:08;18.00;99.90
26107;DHT22;13866;50.748;12.630;2022-09-01T07:40:36;18.00;99.90
26107;DHT22;13866;50.748;12.630;2022-09-01T07:43:08;17.80;99.90
26107;DHT22;13866;50.748;12.630;2022-09-01T07:45:43;17.90;99.90
26107;DHT22;13866;50.748;12.630;2022-09-01T07:48:12;18.20;99.90
26107;DHT22;13866;50.748;12.630;2022-09-01T07:50:42;18.50;99.90
26107;DHT22;13866;50.748;12.630;2022-09-01T07:53:19;18.60;99.90
26107;DHT22;13866;50.748;12.630;2022-09-01T07:55:47;18.70;99.90
26107;DHT22;13866;50.748;12.630;2022-09-01T07:58:14;18.80;99.90
26107;DHT22;13866;50.748;12.630;2022-09-01T08:00:41;18.90;99.90
26107;DHT22;13866;50.748;12.630;2022-09-01T08:03:12;18.70;99.90
26107;DHT22;13866;50.748;12.630;2022-09-01T08:05:38;18.70;99.90
26107;DHT22;13866;50.748;12.630;2022-09-01T08:08:03;18.60;99.90
26107;DHT22;13866;50.748;12.630;2022-09-01T08:10:29;18.60;99.90
26107;DHT22;13866;50.748;12.630;2022-09-01T08:12:55;18.80;99.90
26107;DHT22;13866;50.748;12.630;2022-09-01T08:15:21;19.20;99.90
26107;DHT22;13866;50.748;12.630;2022-09-01T08:17:47;19.40;99.90
26107;DHT22;13866;50.748;12.630;2022-09-01T08:20:12;19.50;99.90
26107;DHT22;13866;50.748;12.630;2022-09-01T08:22:38;19.30;99.90
26107;DHT22;13866;50.748;12.630;2022-09-01T08:25:06;19.20;99.90
26107;DHT22;13866;50.748;12.630;2022-09-01T08:27:33;19.50;99.90
26107;DHT22;13866;50.748;12.630;2022-09-01T08:30:02;19.20;99.90
26107;DHT22;13866;50.748;12.630;2022-09-01T08:32:29;19.30;99.90
26107;DHT22;13866;50.748;12.630;2022-09-01T08:34:54;19.90;99.90
26107;DHT22;13866;50.748;12.630;2022-09-01T08:37:21;20.20;99.90
26107;DHT22;13866;50.748;12.630;2022-09-01T08:39:47;20.30;99.90
26107;DHT22;13866;50.748;12.630;2022-09-01T08:42:32;20.40;99.90
26107;DHT22;13866;50.748;12.630;2022-09-01T08:45:15;20.70;99.90
26107;DHT22;13866;50.748;12.630;2022-09-01T08:47:44;20.70;99.90
26107;DHT22;13866;50.748;12.630;2022-09-01T08:50:10;20.80;99.90
26107;DHT22;13866;50.748;12.630;2022-09-01T08:52:41;21.10;99.90
26107;DHT22;13866;50.748;12.630;2022-09-01T08:55:23;21.20;99.90
26107;DHT22;13866;50.748;12.630;2022-09-01T08:57:53;20.90;99.90
26107;DHT22;13866;50.748;12.630;2022-09-01T09:00:25;20.10;99.90
26107;DHT22;13866;50.748;12.630;2022-09-01T09:03:04;20.50;99.90
26107;DHT22;13866;50.748;12.630;2022-09-01T09:08:44;20.90;99.90
26107;DHT22;13866;50.748;12.630;2022-09-01T09:16:34;21.50;99.90
26107;DHT22;13866;50.748;12.630;2022-09-01T09:19:06;21.60;99.90
26107;DHT22;13866;50.748;12.630;2022-09-01T09:21:39;22.20;99.90
26107;DHT22;13866;50.748;12.630;2022-09-01T09:27:16;21.40;99.90
26107;DHT22;13866;50.748;12.630;2022-09-01T09:29:44;22.10;99.90
26107;DHT22;13866;50.748;12.630;2022-09-01T09:32:09;22.40;99.90
26107;DHT22;13866;50.748;12.630;2022-09-01T09:34:37;22.60;99.90
26107;DHT22;13866;50.748;12.630;2022-09-01T09:37:20;22.00;99.90
26107;DHT22;13866;50.748;12.630;2022-09-01T09:40:11;21.40;99.90
26107;DHT22;13866;50.748;12.630;2022-09-01T09:42:58;21.90;99.90
26107;DHT22;13866;50.748;12.630;2022-09-01T09:45:37;21.40;99.90
26107;DHT22;13866;50.748;12.630;2022-09-01T09:48:06;20.70;99.90
26107;DHT22;13866;50.748;12.630;2022-09-01T09:50:40;20.30;99.90
26107;DHT22;13866;50.748;12.630;2022-09-01T09:53:29;19.70;99.90
26107;DHT22;13866;50.748;12.630;2022-09-01T09:56:03;19.30;99.90
26107;DHT22;13866;50.748;12.630;2022-09-01T09:58:37;19.00;99.90
26107;DHT22;13866;50.748;12.630;2022-09-01T10:01:07;19.00;99.90
26107;DHT22;13866;50.748;12.630;2022-09-01T10:03:47;18.90;99.90
26107;DHT22;13866;50.748;12.630;2022-09-01T10:06:36;18.80;99.90
26107;DHT22;13866;50.748;12.630;2022-09-01T10:09:06;18.90;99.90
26107;DHT22;13866;50.748;12.630;2022-09-01T10:11:41;19.00;99.90
26107;DHT22;13866;50.748;12.630;2022-09-01T10:14:16;19.10;99.90
26107;DHT22;13866;50.748;12.630;2022-09-01T10:16:47;19.20;99.90
26107;DHT22;13866;50.748;12.630;2022-09-01T10:19:14;19.30;99.90
26107;DHT22;13866;50.748;12.630;2022-09-01T10:21:42;19.50;99.90
26107;DHT22;13866;50.748;12.630;2022-09-01T10:24:15;19.20;99.90
26107;DHT22;13866;50.748;12.630;2022-09-01T10:26:42;19.50;99.90
26107;DHT22;13866;50.748;12.630;2022-09-01T10:29:15;19.80;99.90
26107;DHT22;13866;50.748;12.630;2022-09-01T10:31:43;20.60;99.90
26107;DHT22;13866;50.748;12.630;2022-09-01T10:34:13;20.60;99.90
26107;DHT22;13866;50.748;12.630;2022-09-01T10:36:43;20.30;99.90
26107;DHT22;13866;50.748;12.630;2022-09-01T10:39:11;20.20;99.90
26107;DHT22;13866;50.748;12.630;2022-09-01T10:41:47;20.50;99.90
26107;DHT22;13866;50.748;12.630;2022-09-01T10:44:24;20.70;99.90
26107;DHT22;13866;50.748;12.630;2022-09-01T10:46:55;20.60;99.90
26107;DHT22;13866;50.748;12.630;2022-09-01T10:52:10;21.70;99.90
26107;DHT22;13866;50.748;12.630;2022-09-01T11:08:41;21.90;99.90
26107;DHT22;13866;50.748;12.630;2022-09-01T11:11:30;22.20;99.90
26107;DHT22;13866;50.748;12.630;2022-09-01T11:13:59;21.90;99.90
26107;DHT22;13866;50.748;12.630;2022-09-01T11:16:41;22.10;99.90
26107;DHT22;13866;50.748;12.630;2022-09-01T11:19:27;22.30;99.90
26107;DHT22;13866;50.748;12.630;2022-09-01T11:27:10;21.60;99.90
26107;DHT22;13866;50.748;12.630;2022-09-01T11:30:00;21.50;99.90
26107;DHT22;13866;50.748;12.630;2022-09-01T11:32:37;21.60;99.90
26107;DHT22;13866;50.748;12.630;2022-09-01T11:35:06;21.30;99.90
26107;DHT22;13866;50.748;12.630;2022-09-01T11:37:39;20.90;99.90
26107;DHT22;13866;50.748;12.630;2022-09-01T11:40:05;21.20;99.90
26107;DHT22;13866;50.748;12.630;2022-09-01T11:42:42;21.70;99.90
26107;DHT22;13866;50.748;12.630;2022-09-01T11:45:13;21.20;99.90
26107;DHT22;13866;50.748;12.630;2022-09-01T11:47:46;20.90;99.90
26107;DHT22;13866;50.748;12.630;2022-09-01T11:50:18;21.40;99.90
26107;DHT22;13866;50.748;12.630;2022-09-01T11:52:56;21.30;99.90
26107;DHT22;13866;50.748;12.630;2022-09-01T11:55:46;21.70;99.90
26107;DHT22;13866;50.748;12.630;2022-09-01T12:00:57;22.10;99.90
26107;DHT22;13866;50.748;12.630;2022-09-01T12:03:35;22.30;99.90
26107;DHT22;13866;50.748;12.630;2022-09-01T12:06:03;22.20;99.90
26107;DHT22;13866;50.748;12.630;2022-09-01T12:08:33;21.70;99.90
26107;DHT22;13866;50.748;12.630;2022-09-01T12:11:07;22.00;99.90
26107;DHT22;13866;50.748;12.630;2022-09-01T12:13:33;22.50;99.90
26107;DHT22;13866;50.748;12.630;2022-09-01T12:16:05;22.30;99.90
26107;DHT22;13866;50.748;12.630;2022-09-01T12:18:36;23.00;99.90
26107;DHT22;13866;50.748;12.630;2022-09-01T12:21:05;23.20;99.90
26107;DHT22;13866;50.748;12.630;2022-09-01T12:26:00;22.00;99.90
26107;DHT22;13866;50.748;12.630;2022-09-01T12:28:28;21.40;99.90
26107;DHT22;13866;50.748;12.630;2022-09-01T12:30:56;21.00;99.90
26107;DHT22;13866;50.748;12.630;2022-09-01T12:33:22;20.80;99.90
26107;DHT22;13866;50.748;12.630;2022-09-01T12:35:49;20.90;99.90
26107;DHT22;13866;50.748;12.630;2022-09-01T12:38:24;21.40;99.90
26107;DHT22;13866;50.748;12.630;2022-09-01T12:40:53;21.40;99.90
26107;DHT22;13866;50.748;12.630;2022-09-01T12:43:48;21.60;99.90
26107;DHT22;13866;50.748;12.630;2022-09-01T12:46:41;21.80;99.90
26107;DHT22;13866;50.748;12.630;2022-09-01T12:49:18;22.00;99.90
26107;DHT22;13866;50.748;12.630;2022-09-01T12:51:44;22.70;99.90
26107;DHT22;13866;50.748;12.630;2022-09-01T12:54:12;22.70;99.90
26107;DHT22;13866;50.748;12.630;2022-09-01T12:56:38;22.40;99.90
26107;DHT22;13866;50.748;12.630;2022-09-01T12:59:22;22.10;99.90
26107;DHT22;13866;50.748;12.630;2022-09-01T13:01:49;22.10;99.90
26107;DHT22;13866;50.748;12.630;2022-09-01T13:06:47;22.50;99.90
26107;DHT22;13866;50.748;12.630;2022-09-01T13:09:13;22.60;99.90
26107;DHT22;13866;50.748;12.630;2022-09-01T13:11:39;22.30;99.90
26107;DHT22;13866;50.748;12.630;2022-09-01T13:14:06;22.10;99.90
26107;DHT22;13866;50.748;12.630;2022-09-01T13:16:32;22.40;99.90
26107;DHT22;13866;50.748;12.630;2022-09-01T13:19:00;22.20;99.90
26107;DHT22;13866;50.748;12.630;2022-09-01T13:21:25;22.40;99.90
26107;DHT22;13866;50.748;12.630;2022-09-01T13:23:52;22.50;99.90
26107;DHT22;13866;50.748;12.630;2022-09-01T13:26:17;22.30;99.90
26107;DHT22;13866;50.748;12.630;2022-09-01T13:28:43;22.40;99.90
26107;DHT22;13866;50.748;12.630;2022-09-01T13:31:09;22.80;99.90
26107;DHT22;13866;50.748;12.630;2022-09-01T13:33:35;22.50;99.90
26107;DHT22;13866;50.748;12.630;2022-09-01T13:36:02;22.30;99.90
26107;DHT22;13866;50.748;12.630;2022-09-01T13:38:28;22.70;99.90
26107;DHT22;13866;50.748;12.630;2022-09-01T13:40:55;22.70;99.90
26107;DHT22;13866;50.748;12.630;2022-09-01T13:43:22;22.40;99.90
26107;DHT22;13866;50.748;12.630;2022-09-01T13:45:48;22.10;99.90
26107;DHT22;13866;50.748;12.630;2022-09-01T13:48:15;22.30;99.90
26107;DHT22;13866;50.748;12.630;2022-09-01T13:50:42;22.10;99.90
26107;DHT22;13866;50.748;12.630;2022-09-01T13:53:08;22.10;99.90
26107;DHT22;13866;50.748;12.630;2022-09-01T13:55:37;22.30;99.90
26107;DHT22;13866;50.748;12.630;2022-09-01T13:58:03;22.10;99.90
26107;DHT22;13866;50.748;12.630;2022-09-01T14:00:32;22.00;99.90
26107;DHT22;13866;50.748;12.630;2022-09-01T14:03:01;22.20;99.90
26107;DHT22;13866;50.748;12.630;2022-09-01T14:05:30;21.90;99.90
26107;DHT22;13866;50.748;12.630;2022-09-01T14:07:56;21.80;99.90
26107;DHT22;13866;50.748;12.630;2022-09-01T14:10:22;22.10;99.90
26107;DHT22;13866;50.748;12.630;2022-09-01T14:12:49;22.20;99.90
26107;DHT22;13866;50.748;12.630;2022-09-01T14:15:17;22.30;99.90
26107;DHT22;13866;50.748;12.630;2022-09-01T14:17:43;22.00;99.90
26107;DHT22;13866;50.748;12.630;2022-09-01T14:20:12;21.50;99.90
26107;DHT22;13866;50.748;12.630;2022-09-01T14:22:39;21.70;99.90
26107;DHT22;13866;50.748;12.630;2022-09-01T14:25:06;21.60;99.90
26107;DHT22;13866;50.748;12.630;2022-09-01T14:27:32;21.80;99.90
26107;DHT22;13866;50.748;12.630;2022-09-01T14:29:57;21.40;99.90
26107;DHT22;13866;50.748;12.630;2022-09-01T14:32:23;21.60;99.90
26107;DHT22;13866;50.748;12.630;2022-09-01T14:34:51;21.60;99.90
26107;DHT22;13866;50.748;12.630;2022-09-01T14:37:17;21.50;99.90
26107;DHT22;13866;50.748;12.630;2022-09-01T14:39:47;21.60;99.90
26107;DHT22;13866;50.748;12.630;2022-09-01T14:42:13;21.60;99.90
26107;DHT22;13866;50.748;12.630;2022-09-01T14:44:38;21.70;99.90
26107;DHT22;13866;50.748;12.630;2022-09-01T14:47:04;21.90;99.90
26107;DHT22;13866;50.748;12.630;2022-09-01T14:49:33;21.60;99.90
26107;DHT22;13866;50.748;12.630;2022-09-01T14:52:05;21.60;99.90
26107;DHT22;13866;50.748;12.630;2022-09-01T14:54:32;21.70;99.90
26107;DHT22;13866;50.748;12.630;2022-09-01T14:56:58;21.90;99.90
26107;DHT22;13866;50.748;12.630;2022-09-01T14:59:24;21.80;99.90
26107;DHT22;13866;50.748;12.630;2022-09-01T15:01:50;21.90;99.90
26107;DHT22;13866;50.748;12.630;2022-09-01T15:04:15;21.60;99.90
26107;DHT22;13866;50.748;12.630;2022-09-01T15:06:41;21.70;99.90
26107;DHT22;13866;50.748;12.630;2022-09-01T15:09:06;21.70;99.90
26107;DHT22;13866;50.748;12.630;2022-09-01T15:11:32;21.70;99.90
26107;DHT22;13866;50.748;12.630;2022-09-01T15:13:57;21.50;99.90
26107;DHT22;13866;50.748;12.630;2022-09-01T15:16:24;21.30;99.90
26107;DHT22;13866;50.748;12.630;2022-09-01T15:18:50;21.50;99.90
26107;DHT22;13866;50.748;12.630;2022-09-01T15:21:21;21.70;99.90
26107;DHT22;13866;50.748;12.630;2022-09-01T15:23:47;21.80;99.90
26107;DHT22;13866;50.748;12.630;2022-09-01T15:26:13;21.70;99.90
26107;DHT22;13866;50.748;12.630;2022-09-01T15:28:40;21.60;99.90
26107;DHT22;13866;50.748;12.630;2022-09-01T15:31:05;21.80;99.90
26107;DHT22;13866;50.748;12.630;2022-09-01T15:33:31;22.00;99.90
26107;DHT22;13866;50.748;12.630;2022-09-01T15:35:56;21.90;99.90
26107;DHT22;13866;50.748;12.630;2022-09-01T15:38:22;21.90;99.90
26107;DHT22;13866;50.748;12.630;2022-09-01T15:40:47;21.60;99.90
26107;DHT22;13866;50.748;12.630;2022-09-01T15:43:13;21.40;99.90
26107;DHT22;13866;50.748;12.630;2022-09-01T15:45:38;21.30;99.90
26107;DHT22;13866;50.748;12.630;2022-09-01T15:48:05;21.00;99.90
26107;DHT22;13866;50.748;12.630;2022-09-01T15:50:30;20.80;99.90
26107;DHT22;13866;50.748;12.630;2022-09-01T15:52:59;20.60;99.90
26107;DHT22;13866;50.748;12.630;2022-09-01T15:55:30;20.10;99.90
26107;DHT22;13866;50.748;12.630;2022-09-01T15:57:56;20.20;99.90
26107;DHT22;13866;50.748;12.630;2022-09-01T16:00:24;20.10;99.90
26107;DHT22;13866;50.748;12.630;2022-09-01T16:02:50;20.00;99.90
26107;DHT22;13866;50.748;12.630;2022-09-01T16:05:16;19.70;99.90
26107;DHT22;13866;50.748;12.630;2022-09-01T16:07:42;19.80;99.90
26107;DHT22;13866;50.748;12.630;2022-09-01T16:10:09;19.80;99.90